createdAt,value
2019-04-05T00:00:35.915Z,96839.05
2019-04-05T00:03:04.664Z,96849.95
2019-04-05T00:05:37.170Z,96836.84
2019-04-05T00:08:06.092Z,96842.32
2019-04-05T00:10:34.737Z,96840.75
2019-04-05T00:13:03.444Z,96849.23
2019-04-05T00:15:32.123Z,96844.75
2019-04-05T00:18:00.773Z,96844.69
2019-04-05T00:20:30.822Z,96841.02
2019-04-05T00:22:59.517Z,96839.02
2019-04-05T00:25:28.172Z,96843.84
2019-04-05T00:27:56.814Z,96844.09
2019-04-05T00:30:25.506Z,96841.02
2019-04-05T00:32:54.153Z,96847.94
2019-04-05T00:35:24.261Z,96843.43
2019-04-05T00:37:52.942Z,96853.05
2019-04-05T00:40:22.751Z,96850.63
2019-04-05T00:42:51.408Z,96847.02
2019-04-05T00:45:28.191Z,96849.26
2019-04-05T00:47:50.469Z,96849.02
2019-04-05T00:50:19.110Z,96850.73
2019-04-05T00:52:47.796Z,96842.80
2019-04-05T00:55:17.209Z,96851.22
2019-04-05T00:57:45.835Z,96843.17
2019-04-05T01:00:14.531Z,96846.70
2019-04-05T01:02:44.615Z,96849.84
2019-04-05T01:05:13.264Z,96841.86
2019-04-05T01:07:42.027Z,96841.86
2019-04-05T01:10:13.008Z,96846.89
2019-04-05T01:12:41.855Z,96844.72
2019-04-05T01:15:12.528Z,96851.78
2019-04-05T01:17:41.435Z,96845.95
2019-04-05T01:20:11.079Z,96848.38
2019-04-05T01:22:41.678Z,96852.58
2019-04-05T01:25:10.513Z,96858.33
2019-04-05T01:27:42.763Z,96845.59
2019-04-05T01:30:14.523Z,96846.03
2019-04-05T01:32:43.179Z,96847.01
2019-04-05T01:35:12.122Z,96848.62
2019-04-05T01:37:41.408Z,96844.36
2019-04-05T01:40:11.066Z,96843.89
2019-04-05T01:42:40.806Z,96840.69
2019-04-05T01:45:10.295Z,96835.70
2019-04-05T01:47:38.942Z,96838.34
2019-04-05T01:50:10.963Z,96843.77
2019-04-05T01:52:39.950Z,96842.62
2019-04-05T01:55:08.812Z,96852.89
2019-04-05T01:57:37.467Z,96848.16
2019-04-05T02:00:11.653Z,96843.17
2019-04-05T02:02:40.403Z,96843.52
2019-04-05T02:05:09.650Z,96846.88
2019-04-05T02:07:38.974Z,96839.57
2019-04-05T02:10:12.045Z,96838.73
2019-04-05T02:12:42.627Z,96837.70
2019-04-05T02:15:14.223Z,96836.63
2019-04-05T02:17:47.868Z,96843.30
2019-04-05T02:20:16.582Z,96842.12
2019-04-05T02:22:45.270Z,96839.40
2019-04-05T02:25:14.045Z,96837.91
2019-04-05T02:27:42.687Z,96838.44
2019-04-05T02:30:11.567Z,96835.45
2019-04-05T02:32:40.295Z,96839.65
2019-04-05T02:35:09.723Z,96832.38
2019-04-05T02:37:38.669Z,96831.22
2019-04-05T02:40:15.370Z,96836.59
2019-04-05T02:42:47.001Z,96836.41
2019-04-05T02:45:17.621Z,96842.04
2019-04-05T02:47:55.162Z,96847.20
2019-04-05T02:50:26.781Z,96835.01
2019-04-05T02:52:58.094Z,96834.14
2019-04-05T02:55:27.547Z,96839.23
2019-04-05T02:57:57.188Z,96842.67
2019-04-05T03:00:27.019Z,96837.34
2019-04-05T03:02:56.086Z,96845.11
2019-04-05T03:05:25.837Z,96846.63
2019-04-05T03:07:54.484Z,96846.58
2019-04-05T03:10:42.914Z,96848.00
2019-04-05T03:13:11.652Z,96847.84
2019-04-05T03:15:40.693Z,96849.09
2019-04-05T03:18:10.394Z,96854.81
2019-04-05T03:20:39.610Z,96854.00
2019-04-05T03:23:09.155Z,96853.55
2019-04-05T03:25:38.143Z,96850.44
2019-04-05T03:28:07.788Z,96847.88
2019-04-05T03:30:36.934Z,96855.30
2019-04-05T03:33:05.747Z,96846.30
2019-04-05T03:35:34.463Z,96845.45
2019-04-05T03:38:03.505Z,96844.78
2019-04-05T03:40:32.360Z,96840.53
2019-04-05T03:43:01.009Z,96840.87
2019-04-05T03:45:29.683Z,96837.26
2019-04-05T03:47:59.342Z,96836.41
2019-04-05T03:50:29.321Z,96837.97
2019-04-05T03:52:58.309Z,96837.34
2019-04-05T03:55:30.535Z,96838.88
2019-04-05T03:57:59.574Z,96836.04
2019-04-05T04:00:29.050Z,96836.73
2019-04-05T04:02:57.678Z,96832.58
2019-04-05T04:05:26.338Z,96839.97
2019-04-05T04:07:55.720Z,96840.06
2019-04-05T04:10:27.209Z,96841.19
2019-04-05T04:12:56.185Z,96843.41
2019-04-05T04:15:26.558Z,96851.30
2019-04-05T04:17:57.053Z,96849.50
2019-04-05T04:20:40.729Z,96851.98
2019-04-05T04:23:10.599Z,96853.60
2019-04-05T04:25:40.837Z,96836.72
2019-04-05T04:28:10.406Z,96842.47
2019-04-05T04:30:41.267Z,96841.26
2019-04-05T04:33:10.817Z,96845.08
2019-04-05T04:35:40.804Z,96838.55
2019-04-05T04:38:09.955Z,96845.98
2019-04-05T04:40:38.995Z,96852.73
2019-04-05T04:43:08.087Z,96853.25
2019-04-05T04:45:37.027Z,96849.50
2019-04-05T04:48:05.693Z,96861.64
2019-04-05T04:50:35.230Z,96857.65
2019-04-05T04:53:06.300Z,96856.27
2019-04-05T04:55:36.040Z,96855.16
2019-04-05T04:58:05.112Z,96858.15
2019-04-05T05:00:34.664Z,96856.47
2019-04-05T05:03:04.429Z,96866.16
2019-04-05T05:05:33.054Z,96858.58
2019-04-05T05:08:03.497Z,96856.30
2019-04-05T05:10:32.257Z,96856.36
2019-04-05T05:13:00.974Z,96860.77
2019-04-05T05:15:29.794Z,96851.63
2019-04-05T05:17:59.179Z,96851.81
2019-04-05T05:20:29.084Z,96849.16
2019-04-05T05:22:57.729Z,96844.95
2019-04-05T05:25:26.750Z,96839.28
2019-04-05T05:27:55.748Z,96847.55
2019-04-05T05:30:24.515Z,96843.94
2019-04-05T05:32:53.469Z,96842.92
2019-04-05T05:35:22.382Z,96841.33
2019-04-05T05:37:51.043Z,96833.89
2019-04-05T05:40:19.894Z,96837.88
2019-04-05T05:42:48.780Z,96831.94
2019-04-05T05:45:18.055Z,96831.22
2019-04-05T05:47:52.193Z,96829.52
2019-04-05T05:50:17.142Z,96821.61
2019-04-05T05:52:45.844Z,96811.66
2019-04-05T05:55:14.527Z,96817.42
2019-04-05T05:57:43.239Z,96817.78
2019-04-05T06:00:13.576Z,96821.25
2019-04-05T06:02:42.317Z,96821.52
2019-04-05T06:05:11.163Z,96820.98
2019-04-05T06:07:39.834Z,96824.93
2019-04-05T06:10:08.710Z,96827.89
2019-04-05T06:12:38.482Z,96811.27
2019-04-05T06:15:07.145Z,96816.98
2019-04-05T06:17:35.822Z,96807.91
2019-04-05T06:20:06.990Z,96819.97
2019-04-05T06:22:35.595Z,96822.02
2019-04-05T06:25:05.603Z,96817.38
2019-04-05T06:27:35.481Z,96821.59
2019-04-05T06:30:06.662Z,96821.13
2019-04-05T06:32:35.279Z,96823.95
2019-04-05T06:35:06.925Z,96822.14
2019-04-05T06:37:35.554Z,96820.30
2019-04-05T06:40:06.791Z,96816.58
2019-04-05T06:42:35.498Z,96818.66
2019-04-05T06:45:06.277Z,96819.78
2019-04-05T06:47:34.945Z,96822.31
2019-04-05T06:50:05.340Z,96823.72
2019-04-05T06:52:34.022Z,96821.64
2019-04-05T06:55:02.899Z,96823.40
2019-04-05T06:57:31.626Z,96818.47
2019-04-05T07:00:00.193Z,96817.23
2019-04-05T07:02:28.852Z,96816.76
2019-04-05T07:04:59.095Z,96818.59
2019-04-05T07:07:27.726Z,96812.95
2019-04-05T07:09:56.683Z,96822.80
2019-04-05T07:12:25.750Z,96826.31
2019-04-05T07:14:56.257Z,96821.31
2019-04-05T07:17:24.911Z,96816.36
2019-04-05T07:19:53.631Z,96823.00
2019-04-05T07:22:37.067Z,96826.78
2019-04-05T07:24:52.669Z,96820.53
2019-04-05T07:27:22.952Z,96823.30
2019-04-05T07:29:51.534Z,96821.17
2019-04-05T07:32:20.136Z,96815.91
2019-04-05T07:34:48.813Z,96826.27
2019-04-05T07:37:17.538Z,96827.41
2019-04-05T07:39:46.254Z,96825.45
2019-04-05T07:42:16.361Z,96829.70
2019-04-05T07:44:45.092Z,96828.39
2019-04-05T07:47:13.791Z,96832.63
2019-04-05T07:49:42.437Z,96837.17
2019-04-05T07:52:13.061Z,96834.73
2019-04-05T07:54:41.495Z,96837.20
2019-04-05T07:57:10.146Z,96839.67
2019-04-05T07:59:41.128Z,96841.83
2019-04-05T08:02:09.859Z,96840.34
2019-04-05T08:04:38.523Z,96843.95
2019-04-05T08:07:09.214Z,96838.84
2019-04-05T08:09:39.174Z,96836.77
2019-04-05T08:12:08.210Z,96828.66
2019-04-05T08:14:40.167Z,96834.68
2019-04-05T08:17:09.099Z,96829.63
2019-04-05T08:19:53.602Z,96829.52
2019-04-05T08:22:24.041Z,96830.48
2019-04-05T08:24:55.286Z,96830.77
2019-04-05T08:27:24.507Z,96830.00
2019-04-05T08:29:55.250Z,96831.55
2019-04-05T08:32:23.963Z,96824.53
2019-04-05T08:34:52.626Z,96823.97
2019-04-05T08:37:21.399Z,96816.25
2019-04-05T08:39:49.986Z,96814.27
2019-04-05T08:42:18.699Z,96819.57
2019-04-05T08:44:47.946Z,96814.94
2019-04-05T08:47:22.673Z,96816.02
2019-04-05T08:49:51.463Z,96814.07
2019-04-05T08:52:26.897Z,96807.63
2019-04-05T08:54:54.367Z,96808.86
2019-04-05T08:57:33.126Z,96810.09
2019-04-05T08:59:59.047Z,96810.45
2019-04-05T09:02:31.242Z,96809.01
2019-04-05T09:05:21.653Z,96810.55
2019-04-05T09:07:56.171Z,96819.07
2019-04-05T09:10:24.884Z,96814.47
2019-04-05T09:12:54.998Z,96821.79
2019-04-05T09:15:23.599Z,96816.32
2019-04-05T09:17:52.711Z,96819.00
2019-04-05T09:20:22.837Z,96816.79
2019-04-05T09:22:51.435Z,96821.31
2019-04-05T09:25:23.319Z,96812.48
2019-04-05T09:27:57.159Z,96820.34
2019-04-05T09:30:27.675Z,96818.78
2019-04-05T09:32:57.870Z,96826.08
2019-04-05T09:35:28.850Z,96807.25
2019-04-05T09:37:57.633Z,96812.55
2019-04-05T09:40:29.301Z,96827.69
2019-04-05T09:42:58.068Z,96826.17
2019-04-05T09:45:31.379Z,96814.39
2019-04-05T09:48:00.261Z,96812.63
2019-04-05T09:50:28.883Z,96840.16
2019-04-05T09:52:57.560Z,96819.86
2019-04-05T09:55:26.249Z,96842.18
2019-04-05T09:57:54.940Z,96833.05
2019-04-05T10:00:25.339Z,96824.29
2019-04-05T10:02:54.098Z,96824.53
2019-04-05T10:05:25.673Z,96818.78
2019-04-05T10:07:56.073Z,96816.39
2019-04-05T10:10:24.857Z,96818.25
2019-04-05T10:12:53.494Z,96808.47
2019-04-05T10:15:22.262Z,96814.53
2019-04-05T10:17:52.097Z,96807.14
2019-04-05T10:20:20.746Z,96801.61
2019-04-05T10:22:49.409Z,96803.88
2019-04-05T10:25:18.286Z,96801.56
2019-04-05T10:27:46.954Z,96799.79
2019-04-05T10:30:15.988Z,96805.03
2019-04-05T10:32:46.312Z,96808.95
2019-04-05T10:35:15.202Z,96801.65
2019-04-05T10:37:43.865Z,96802.09
2019-04-05T10:40:15.013Z,96810.42
2019-04-05T10:42:43.672Z,96820.11
2019-04-05T10:45:13.102Z,96810.09
2019-04-05T10:47:41.784Z,96816.42
2019-04-05T10:50:12.972Z,96812.27
2019-04-05T10:52:41.766Z,96804.09
2019-04-05T10:55:11.233Z,96800.72
2019-04-05T10:57:39.897Z,96806.48
2019-04-05T11:00:14.691Z,96800.42
2019-04-05T11:02:43.368Z,96796.59
2019-04-05T11:05:15.640Z,96801.42
2019-04-05T11:07:44.395Z,96800.87
2019-04-05T11:10:13.745Z,96794.88
2019-04-05T11:12:42.483Z,96795.94
2019-04-05T11:15:14.871Z,96798.03
2019-04-05T11:17:42.695Z,96794.81
2019-04-05T11:20:21.166Z,96799.95
2019-04-05T11:22:42.652Z,96794.28
2019-04-05T11:25:13.011Z,96783.38
2019-04-05T11:27:41.753Z,96778.55
2019-04-05T11:30:11.535Z,96784.98
2019-04-05T11:32:40.404Z,96782.43
2019-04-05T11:35:20.815Z,96784.94
2019-04-05T11:37:50.811Z,96776.87
2019-04-05T11:40:20.539Z,96775.48
2019-04-05T11:42:50.527Z,96781.80
2019-04-05T11:45:19.184Z,96779.35
2019-04-05T11:47:48.839Z,96772.56
2019-04-05T11:50:34.366Z,96777.64
2019-04-05T11:52:57.105Z,96778.58
2019-04-05T11:55:28.228Z,96776.91
2019-04-05T11:57:56.911Z,96773.72
2019-04-05T12:00:43.382Z,96772.98
2019-04-05T12:03:22.781Z,96772.58
2019-04-05T12:05:51.419Z,96768.56
2019-04-05T12:08:20.112Z,96763.50
2019-04-05T12:10:48.828Z,96769.47
2019-04-05T12:13:17.625Z,96771.59
2019-04-05T12:15:47.928Z,96768.76
2019-04-05T12:18:19.697Z,96770.75
2019-04-05T12:20:59.022Z,96760.66
2019-04-05T12:23:21.810Z,96743.08
2019-04-05T12:25:50.547Z,96742.86
2019-04-05T12:28:19.406Z,96733.42
2019-04-05T12:30:49.168Z,96734.92
2019-04-05T12:33:19.707Z,96727.90
2019-04-05T12:35:51.658Z,96724.37
2019-04-05T12:38:33.131Z,96727.42
2019-04-05T12:41:04.521Z,96719.55
2019-04-05T12:43:33.385Z,96723.69
2019-04-05T12:46:03.948Z,96707.85
2019-04-05T12:48:32.581Z,96706.31
2019-04-05T12:51:03.826Z,96699.28
2019-04-05T12:53:32.091Z,96701.48
2019-04-05T12:56:00.922Z,96697.88
2019-04-05T12:58:32.567Z,96697.87
2019-04-05T13:01:01.420Z,96700.59
2019-04-05T13:03:30.092Z,96697.77
2019-04-05T13:05:58.804Z,96698.96
2019-04-05T13:08:27.497Z,96698.89
2019-04-05T13:10:57.044Z,96690.32
2019-04-05T13:13:27.446Z,96685.03
2019-04-05T13:15:59.171Z,96682.36
2019-04-05T13:18:30.463Z,96691.12
2019-04-05T13:20:58.284Z,96684.67
2019-04-05T13:23:28.275Z,96683.23
2019-04-05T13:25:56.942Z,96676.18
2019-04-05T13:28:25.702Z,96678.83
2019-04-05T13:30:55.590Z,96670.96
2019-04-05T13:33:24.505Z,96668.44
2019-04-05T13:35:53.180Z,96661.39
2019-04-05T13:38:21.851Z,96661.91
2019-04-05T13:40:51.727Z,96655.56
2019-04-05T13:43:20.452Z,96653.42
2019-04-05T13:45:50.486Z,96645.30
2019-04-05T13:48:20.322Z,96637.84
2019-04-05T13:50:49.031Z,96638.16
2019-04-05T13:53:17.635Z,96643.48
2019-04-05T13:55:47.525Z,96638.39
2019-04-05T13:58:16.384Z,96638.78
2019-04-05T14:00:48.390Z,96631.72
2019-04-05T14:03:15.480Z,96638.31
2019-04-05T14:05:44.180Z,96632.23
2019-04-05T14:08:13.381Z,96639.70
2019-04-05T14:10:42.101Z,96634.45
2019-04-05T14:13:10.852Z,96627.14
2019-04-05T14:15:41.978Z,96625.39
2019-04-05T14:18:10.090Z,96616.58
2019-04-05T14:20:38.766Z,96617.69
2019-04-05T14:23:07.352Z,96618.09
2019-04-05T14:25:36.046Z,96609.66
2019-04-05T14:28:05.390Z,96609.73
2019-04-05T14:30:34.348Z,96607.31
2019-04-05T14:33:03.072Z,96610.27
2019-04-05T14:35:32.111Z,96603.23
2019-04-05T14:38:00.832Z,96603.09
2019-04-05T14:40:32.818Z,96594.72
2019-04-05T14:42:59.984Z,96596.69
2019-04-05T14:45:28.637Z,96595.68
2019-04-05T14:47:58.454Z,96594.45
2019-04-05T14:50:29.286Z,96596.27
2019-04-05T14:53:01.827Z,96592.61
2019-04-05T14:55:33.586Z,96584.54
2019-04-05T14:58:03.364Z,96585.92
2019-04-05T15:00:33.646Z,96578.55
2019-04-05T15:03:03.934Z,96575.99
2019-04-05T15:05:32.626Z,96576.48
2019-04-05T15:08:01.296Z,96579.48
2019-04-05T15:10:29.948Z,96568.31
2019-04-05T15:13:00.456Z,96572.34
2019-04-05T15:15:29.556Z,96572.75
2019-04-05T15:17:58.207Z,96561.50
2019-04-05T15:20:26.858Z,96565.22
2019-04-05T15:22:55.488Z,96561.97
2019-04-05T15:25:24.127Z,96567.56
2019-04-05T15:27:55.515Z,96570.65
2019-04-05T15:30:25.662Z,96567.57
2019-04-05T15:32:57.730Z,96557.62
2019-04-05T15:35:24.059Z,96558.38
2019-04-05T15:37:53.641Z,96556.31
2019-04-05T15:40:22.174Z,96557.36
2019-04-05T15:42:50.851Z,96553.83
2019-04-05T15:45:19.849Z,96546.13
2019-04-05T15:47:48.502Z,96549.95
2019-04-05T15:50:17.150Z,96553.33
2019-04-05T15:52:45.849Z,96544.91
2019-04-05T15:55:14.876Z,96549.76
2019-04-05T15:57:45.008Z,96556.03
2019-04-05T16:00:17.349Z,96547.69
2019-04-05T16:02:46.322Z,96550.59
2019-04-05T16:05:16.142Z,96548.45
2019-04-05T16:07:45.198Z,96549.00
2019-04-05T16:10:14.656Z,96553.41
2019-04-05T16:12:44.676Z,96552.38
2019-04-05T16:15:14.794Z,96545.27
2019-04-05T16:17:43.549Z,96556.87
2019-04-05T16:20:13.849Z,96549.56
2019-04-05T16:22:42.649Z,96537.05
2019-04-05T16:25:11.781Z,96544.98
2019-04-05T16:27:40.434Z,96551.55
2019-04-05T16:30:11.159Z,96545.74
2019-04-05T16:32:41.279Z,96548.72
2019-04-05T16:35:10.033Z,96550.31
2019-04-05T16:37:38.881Z,96549.00
2019-04-05T16:40:08.722Z,96548.35
2019-04-05T16:42:37.340Z,96548.71
2019-04-05T16:45:08.344Z,96554.70
2019-04-05T16:47:36.998Z,96563.13
2019-04-05T16:50:09.687Z,96557.80
2019-04-05T16:52:44.655Z,96564.82
2019-04-05T16:55:09.673Z,96564.70
2019-04-05T16:57:38.503Z,96565.44
2019-04-05T17:00:11.395Z,96562.08
2019-04-05T17:02:40.113Z,96568.27
2019-04-05T17:05:09.989Z,96563.92
2019-04-05T17:07:38.792Z,96563.64
2019-04-05T17:10:08.631Z,96561.48
2019-04-05T17:12:37.269Z,96564.30
2019-04-05T17:15:07.973Z,96556.27
2019-04-05T17:17:36.711Z,96567.08
2019-04-05T17:20:08.094Z,96564.98
2019-04-05T17:22:36.827Z,96567.91
2019-04-05T17:25:08.638Z,96572.67
2019-04-05T17:27:39.488Z,96579.01
2019-04-05T17:30:09.051Z,96572.64
2019-04-05T17:32:38.733Z,96576.17
2019-04-05T17:35:08.135Z,96582.70
2019-04-05T17:37:36.817Z,96573.38
2019-04-05T17:40:08.172Z,96579.42
2019-04-05T17:42:37.209Z,96572.13
2019-04-05T17:45:09.417Z,96574.08
2019-04-05T17:47:38.642Z,96579.23
2019-04-05T17:50:10.718Z,96578.92
2019-04-05T17:52:39.470Z,96583.22
2019-04-05T17:55:08.319Z,96579.29
2019-04-05T17:57:37.077Z,96583.87
2019-04-05T18:00:08.916Z,96579.58
2019-04-05T18:02:39.527Z,96586.48
2019-04-05T18:05:08.283Z,96591.98
2019-04-05T18:07:37.320Z,96579.94
2019-04-05T18:10:06.942Z,96584.70
2019-04-05T18:12:35.557Z,96585.95
2019-04-05T18:15:04.793Z,96581.81
2019-04-05T18:17:43.989Z,96581.98
2019-04-05T18:20:12.846Z,96583.48
2019-04-05T18:22:41.355Z,96576.42
2019-04-05T18:25:10.109Z,96577.95
2019-04-05T18:27:43.878Z,96575.66
2019-04-05T18:30:12.586Z,96574.14
2019-04-05T18:32:41.366Z,96573.38
2019-04-05T18:35:11.592Z,96579.73
2019-04-05T18:37:42.736Z,96578.37
2019-04-05T18:40:11.377Z,96569.84
2019-04-05T18:42:40.015Z,96579.54
2019-04-05T18:45:09.874Z,96576.98
2019-04-05T18:47:38.524Z,96567.61
2019-04-05T18:50:08.584Z,96574.44
2019-04-05T18:52:42.204Z,96570.44
2019-04-05T18:55:10.845Z,96574.37
2019-04-05T18:57:39.537Z,96579.13
2019-04-05T19:00:15.589Z,96575.66
2019-04-05T19:02:47.552Z,96576.02
2019-04-05T19:05:16.209Z,96569.63
2019-04-05T19:07:49.887Z,96572.73
2019-04-05T19:10:18.606Z,96575.11
2019-04-05T19:12:47.474Z,96578.70
2019-04-05T19:15:16.151Z,96577.77
2019-04-05T19:17:44.747Z,96578.03
2019-04-05T19:20:14.470Z,96582.08
2019-04-05T19:22:46.036Z,96574.75
2019-04-05T19:25:15.185Z,96577.34
2019-04-05T19:27:43.891Z,96578.14
2019-04-05T19:50:24.293Z,96590.67
2019-04-05T19:52:53.056Z,96592.43
2019-04-05T19:55:21.739Z,96597.78
2019-04-05T19:57:50.402Z,96590.08
2019-04-05T20:00:19.773Z,96593.22
2019-04-05T20:02:48.463Z,96595.80
2019-04-05T20:05:17.111Z,96594.86
2019-04-05T20:07:45.769Z,96605.64
2019-04-05T20:10:14.631Z,96603.91
2019-04-05T20:12:43.336Z,96598.00
2019-04-05T20:15:12.883Z,96607.52
2019-04-05T20:17:41.617Z,96616.00
2019-04-05T20:20:10.477Z,96617.72
2019-04-05T20:22:39.749Z,96616.05
2019-04-05T20:25:08.534Z,96615.95
2019-04-05T20:27:37.190Z,96618.88
2019-04-05T20:30:10.553Z,96617.72
2019-04-05T20:32:39.215Z,96609.22
2019-04-05T20:35:07.951Z,96615.48
2019-04-05T20:37:36.497Z,96615.89
2019-04-05T20:40:07.123Z,96616.89
2019-04-05T20:42:35.807Z,96620.13
2019-04-05T20:45:04.779Z,96622.38
2019-04-05T20:47:33.371Z,96621.95
2019-04-05T20:50:02.066Z,96621.28
2019-04-05T20:52:32.280Z,96623.67
2019-04-05T20:55:00.867Z,96628.58
2019-04-05T20:57:29.435Z,96632.23
2019-04-05T20:59:58.099Z,96629.19
2019-04-05T21:02:28.617Z,96630.08
2019-04-05T21:04:57.235Z,96628.75
2019-04-05T21:07:25.813Z,96632.22
2019-04-05T21:09:54.497Z,96629.19
2019-04-05T21:12:23.288Z,96625.53
2019-04-05T21:14:51.942Z,96629.57
2019-04-05T21:17:20.531Z,96632.59
2019-04-05T21:19:50.866Z,96625.86
2019-04-05T21:22:21.951Z,96625.80
2019-04-05T21:24:50.549Z,96632.03
2019-04-05T21:27:19.216Z,96637.38
2019-04-05T21:29:47.866Z,96637.16
2019-04-05T21:32:16.589Z,96633.27
2019-04-05T21:34:45.138Z,96637.17
2019-04-05T21:37:13.721Z,96642.77
2019-04-05T21:39:42.441Z,96635.02
2019-04-05T21:42:10.963Z,96636.58
2019-04-05T21:44:39.673Z,96638.45
2019-04-05T21:47:08.335Z,96638.72
2019-04-05T21:49:36.911Z,96635.97
2019-04-05T21:52:06.006Z,96625.23
2019-04-05T21:54:42.747Z,96625.09
2019-04-05T21:57:06.506Z,96626.23
2019-04-05T21:59:35.153Z,96619.08
2019-04-05T22:02:04.130Z,96618.80
2019-04-05T22:04:32.781Z,96619.38
2019-04-05T22:07:01.693Z,96624.97
2019-04-05T22:09:30.307Z,96623.36
2019-04-05T22:11:58.972Z,96624.72
2019-04-05T22:14:27.746Z,96625.89
2019-04-05T22:16:56.467Z,96622.73
2019-04-05T22:19:25.046Z,96618.10
2019-04-05T22:21:53.891Z,96617.76
2019-04-05T22:24:22.576Z,96616.22
2019-04-05T22:26:51.147Z,96617.14
2019-04-05T22:29:19.906Z,96619.70
2019-04-05T22:31:48.555Z,96618.45
2019-04-05T22:34:17.067Z,96616.44
2019-04-05T22:36:45.762Z,96614.42
2019-04-05T22:39:14.412Z,96614.00
2019-04-05T22:41:43.108Z,96611.89
2019-04-05T22:44:12.117Z,96612.42
2019-04-05T22:46:40.773Z,96618.94
2019-04-05T22:49:09.423Z,96610.73
2019-04-05T22:51:38.116Z,96606.17
2019-04-05T22:54:09.011Z,96603.22
2019-04-05T22:56:37.587Z,96609.66
2019-04-05T22:59:06.355Z,96603.56
2019-04-05T23:01:34.827Z,96609.70
2019-04-05T23:04:03.554Z,96611.25
2019-04-05T23:06:32.213Z,96605.79
2019-04-05T23:09:00.791Z,96600.83
2019-04-05T23:11:29.483Z,96604.80
2019-04-05T23:13:58.133Z,96606.37
2019-04-05T23:16:26.791Z,96595.80
2019-04-05T23:18:57.678Z,96605.50
2019-04-05T23:21:26.273Z,96606.23
2019-04-05T23:23:54.923Z,96602.13
2019-04-05T23:26:24.149Z,96602.28
2019-04-05T23:28:52.738Z,96600.31
2019-04-05T23:31:21.246Z,96599.84
2019-04-05T23:33:49.939Z,96594.64
2019-04-05T23:36:18.594Z,96593.44
2019-04-05T23:38:47.102Z,96590.45
2019-04-05T23:41:15.790Z,96593.05
2019-04-05T23:43:44.436Z,96583.68
2019-04-05T23:46:13.089Z,96587.86
2019-04-05T23:48:41.667Z,96586.42
2019-04-05T23:51:10.245Z,96586.28
2019-04-05T23:53:38.893Z,96588.70
2019-04-05T23:56:07.605Z,96585.67
2019-04-05T23:58:36.459Z,96592.73
